sensor_id;sensor_type;location;lat;lon;timestamp;temperature;humidity
49032;DHT22;63443;48.366;10.876;2022-12-07T00:01:34;2.20;99.90
49032;DHT22;63443;48.366;10.876;2022-12-07T00:04:02;2.20;99.90
49032;DHT22;63443;48.366;10.876;2022-12-07T00:06:36;2.20;99.90
49032;DHT22;63443;48.366;10.876;2022-12-07T00:09:03;2.20;99.90
49032;DHT22;63443;48.366;10.876;2022-12-07T00:11:29;2.10;99.90
49032;DHT22;63443;48.366;10.876;2022-12-07T00:13:59;2.20;99.90
49032;DHT22;63443;48.366;10.876;2022-12-07T00:16:29;2.20;99.90
49032;DHT22;63443;48.366;10.876;2022-12-07T00:18:54;2.20;99.90
49032;DHT22;63443;48.366;10.876;2022-12-07T00:21:25;2.20;99.90
49032;DHT22;63443;48.366;10.876;2022-12-07T00:23:53;2.20;99.90
49032;DHT22;63443;48.366;10.876;2022-12-07T00:26:21;2.20;99.90
49032;DHT22;63443;48.366;10.876;2022-12-07T00:28:52;2.10;99.90
49032;DHT22;63443;48.366;10.876;2022-12-07T00:31:22;2.10;99.90
49032;DHT22;63443;48.366;10.876;2022-12-07T00:33:48;2.10;99.90
49032;DHT22;63443;48.366;10.876;2022-12-07T00:36:15;2.10;99.90
49032;DHT22;63443;48.366;10.876;2022-12-07T00:38:41;2.20;99.90
49032;DHT22;63443;48.366;10.876;2022-12-07T00:41:13;2.10;99.90
49032;DHT22;63443;48.366;10.876;2022-12-07T00:43:40;2.10;99.90
49032;DHT22;63443;48.366;10.876;2022-12-07T00:46:06;2.10;99.90
49032;DHT22;63443;48.366;10.876;2022-12-07T00:48:32;2.10;99.90
49032;DHT22;63443;48.366;10.876;2022-12-07T00:50:58;2.10;99.90
49032;DHT22;63443;48.366;10.876;2022-12-07T00:53:25;2.10;99.90
49032;DHT22;63443;48.366;10.876;2022-12-07T00:55:50;2.10;99.90
49032;DHT22;63443;48.366;10.876;2022-12-07T00:58:18;2.10;99.90
49032;DHT22;63443;48.366;10.876;2022-12-07T01:00:43;2.10;99.90
49032;DHT22;63443;48.366;10.876;2022-12-07T01:03:11;2.10;99.90
49032;DHT22;63443;48.366;10.876;2022-12-07T01:05:37;2.10;99.90
49032;DHT22;63443;48.366;10.876;2022-12-07T01:08:03;2.10;99.90
49032;DHT22;63443;48.366;10.876;2022-12-07T01:10:29;2.20;99.90
49032;DHT22;63443;48.366;10.876;2022-12-07T01:12:56;2.10;99.90
49032;DHT22;63443;48.366;10.876;2022-12-07T01:15:21;2.00;99.90
49032;DHT22;63443;48.366;10.876;2022-12-07T01:17:47;2.00;99.90
49032;DHT22;63443;48.366;10.876;2022-12-07T01:20:13;2.00;99.90
49032;DHT22;63443;48.366;10.876;2022-12-07T01:22:42;2.10;99.90
49032;DHT22;63443;48.366;10.876;2022-12-07T01:25:09;2.20;99.90
49032;DHT22;63443;48.366;10.876;2022-12-07T01:27:35;2.20;99.90
49032;DHT22;63443;48.366;10.876;2022-12-07T01:30:01;2.20;99.90
49032;DHT22;63443;48.366;10.876;2022-12-07T01:32:29;2.10;99.90
49032;DHT22;63443;48.366;10.876;2022-12-07T01:34:54;2.10;99.90
49032;DHT22;63443;48.366;10.876;2022-12-07T01:37:20;2.10;99.90
49032;DHT22;63443;48.366;10.876;2022-12-07T01:39:51;2.00;99.90
49032;DHT22;63443;48.366;10.876;2022-12-07T01:42:18;2.00;99.90
49032;DHT22;63443;48.366;10.876;2022-12-07T01:47:53;2.00;99.90
49032;DHT22;63443;48.366;10.876;2022-12-07T01:50:22;2.00;99.90
49032;DHT22;63443;48.366;10.876;2022-12-07T01:52:50;2.00;99.90
49032;DHT22;63443;48.366;10.876;2022-12-07T01:55:18;2.00;99.90
49032;DHT22;63443;48.366;10.876;2022-12-07T01:57:49;2.00;99.90
49032;DHT22;63443;48.366;10.876;2022-12-07T02:00:16;2.00;99.90
49032;DHT22;63443;48.366;10.876;2022-12-07T02:03:09;2.00;99.90
49032;DHT22;63443;48.366;10.876;2022-12-07T02:05:38;2.00;99.90
49032;DHT22;63443;48.366;10.876;2022-12-07T02:08:06;2.10;99.90
49032;DHT22;63443;48.366;10.876;2022-12-07T02:10:32;2.00;99.90
49032;DHT22;63443;48.366;10.876;2022-12-07T02:13:01;2.00;99.90
49032;DHT22;63443;48.366;10.876;2022-12-07T02:21:28;2.10;99.90
49032;DHT22;63443;48.366;10.876;2022-12-07T02:31:46;1.90;99.90
49032;DHT22;63443;48.366;10.876;2022-12-07T02:34:34;1.90;99.90
49032;DHT22;63443;48.366;10.876;2022-12-07T02:37:17;1.90;99.90
49032;DHT22;63443;48.366;10.876;2022-12-07T02:39:50;1.90;99.90
49032;DHT22;63443;48.366;10.876;2022-12-07T02:42:43;1.80;99.90
49032;DHT22;63443;48.366;10.876;2022-12-07T02:45:10;1.90;99.90
49032;DHT22;63443;48.366;10.876;2022-12-07T02:47:39;1.90;99.90
49032;DHT22;63443;48.366;10.876;2022-12-07T02:50:07;1.90;99.90
49032;DHT22;63443;48.366;10.876;2022-12-07T02:52:32;1.90;99.90
49032;DHT22;63443;48.366;10.876;2022-12-07T02:54:58;1.90;99.90
49032;DHT22;63443;48.366;10.876;2022-12-07T02:58:06;1.90;99.90
49032;DHT22;63443;48.366;10.876;2022-12-07T03:00:38;1.90;99.90
49032;DHT22;63443;48.366;10.876;2022-12-07T03:03:10;1.80;99.90
49032;DHT22;63443;48.366;10.876;2022-12-07T03:05:47;1.80;99.90
49032;DHT22;63443;48.366;10.876;2022-12-07T03:08:31;1.90;99.90
49032;DHT22;63443;48.366;10.876;2022-12-07T03:11:10;1.80;99.90
49032;DHT22;63443;48.366;10.876;2022-12-07T03:14:02;1.80;99.90
49032;DHT22;63443;48.366;10.876;2022-12-07T03:16:37;1.90;99.90
49032;DHT22;63443;48.366;10.876;2022-12-07T03:19:18;1.90;99.90
49032;DHT22;63443;48.366;10.876;2022-12-07T03:22:08;1.90;99.90
49032;DHT22;63443;48.366;10.876;2022-12-07T03:24:49;1.90;99.90
49032;DHT22;63443;48.366;10.876;2022-12-07T03:27:46;1.90;99.90
49032;DHT22;63443;48.366;10.876;2022-12-07T03:30:20;1.90;99.90
49032;DHT22;63443;48.366;10.876;2022-12-07T03:32:56;2.10;99.90
49032;DHT22;63443;48.366;10.876;2022-12-07T03:35:31;2.10;99.90
49032;DHT22;63443;48.366;10.876;2022-12-07T03:38:22;2.00;99.90
49032;DHT22;63443;48.366;10.876;2022-12-07T03:40:57;2.00;99.90
49032;DHT22;63443;48.366;10.876;2022-12-07T03:43:25;2.00;99.90
49032;DHT22;63443;48.366;10.876;2022-12-07T03:48:37;1.90;99.90
49032;DHT22;63443;48.366;10.876;2022-12-07T03:51:16;1.90;99.90
49032;DHT22;63443;48.366;10.876;2022-12-07T03:56:33;1.90;99.90
49032;DHT22;63443;48.366;10.876;2022-12-07T03:58:58;2.00;99.90
49032;DHT22;63443;48.366;10.876;2022-12-07T04:01:24;1.90;99.90
49032;DHT22;63443;48.366;10.876;2022-12-07T04:03:50;1.90;99.90
49032;DHT22;63443;48.366;10.876;2022-12-07T04:06:16;1.90;99.90
49032;DHT22;63443;48.366;10.876;2022-12-07T04:08:42;1.90;99.90
49032;DHT22;63443;48.366;10.876;2022-12-07T04:11:08;1.90;99.90
49032;DHT22;63443;48.366;10.876;2022-12-07T04:13:33;1.90;99.90
49032;DHT22;63443;48.366;10.876;2022-12-07T04:16:19;1.90;99.90
49032;DHT22;63443;48.366;10.876;2022-12-07T04:18:45;1.90;99.90
49032;DHT22;63443;48.366;10.876;2022-12-07T04:21:10;1.90;99.90
49032;DHT22;63443;48.366;10.876;2022-12-07T04:23:36;1.90;99.90
49032;DHT22;63443;48.366;10.876;2022-12-07T04:26:01;1.80;99.90
49032;DHT22;63443;48.366;10.876;2022-12-07T04:28:27;1.80;99.90
49032;DHT22;63443;48.366;10.876;2022-12-07T04:30:52;1.70;99.90
49032;DHT22;63443;48.366;10.876;2022-12-07T04:33:18;1.70;99.90
49032;DHT22;63443;48.366;10.876;2022-12-07T04:35:44;1.70;99.90
49032;DHT22;63443;48.366;10.876;2022-12-07T04:38:09;1.70;99.90
49032;DHT22;63443;48.366;10.876;2022-12-07T04:40:35;1.70;99.90
49032;DHT22;63443;48.366;10.876;2022-12-07T04:43:00;1.80;99.90
49032;DHT22;63443;48.366;10.876;2022-12-07T04:45:26;1.80;99.90
49032;DHT22;63443;48.366;10.876;2022-12-07T04:47:51;1.70;99.90
49032;DHT22;63443;48.366;10.876;2022-12-07T04:50:17;1.70;99.90
49032;DHT22;63443;48.366;10.876;2022-12-07T04:52:43;1.70;99.90
49032;DHT22;63443;48.366;10.876;2022-12-07T04:55:08;1.70;99.90
49032;DHT22;63443;48.366;10.876;2022-12-07T04:57:34;1.70;99.90
49032;DHT22;63443;48.366;10.876;2022-12-07T04:59:59;1.70;99.90
49032;DHT22;63443;48.366;10.876;2022-12-07T05:02:25;1.60;99.90
49032;DHT22;63443;48.366;10.876;2022-12-07T05:04:50;1.60;99.90
49032;DHT22;63443;48.366;10.876;2022-12-07T05:07:16;1.60;99.90
49032;DHT22;63443;48.366;10.876;2022-12-07T05:09:42;1.70;99.90
49032;DHT22;63443;48.366;10.876;2022-12-07T05:12:07;1.70;99.90
49032;DHT22;63443;48.366;10.876;2022-12-07T05:14:33;1.80;99.90
49032;DHT22;63443;48.366;10.876;2022-12-07T05:16:58;1.70;99.90
49032;DHT22;63443;48.366;10.876;2022-12-07T05:19:24;1.70;99.90
49032;DHT22;63443;48.366;10.876;2022-12-07T05:21:51;1.80;99.90
49032;DHT22;63443;48.366;10.876;2022-12-07T05:24:17;1.70;99.90
49032;DHT22;63443;48.366;10.876;2022-12-07T05:26:43;1.70;99.90
49032;DHT22;63443;48.366;10.876;2022-12-07T05:29:12;1.80;99.90
49032;DHT22;63443;48.366;10.876;2022-12-07T05:31:38;1.80;99.90
49032;DHT22;63443;48.366;10.876;2022-12-07T05:34:03;1.70;99.90
49032;DHT22;63443;48.366;10.876;2022-12-07T05:36:29;1.70;99.90
49032;DHT22;63443;48.366;10.876;2022-12-07T05:38:57;1.70;99.90
49032;DHT22;63443;48.366;10.876;2022-12-07T05:41:22;1.70;99.90
49032;DHT22;63443;48.366;10.876;2022-12-07T05:44:07;1.70;99.90
49032;DHT22;63443;48.366;10.876;2022-12-07T05:46:33;1.70;99.90
49032;DHT22;63443;48.366;10.876;2022-12-07T05:48:58;1.70;99.90
49032;DHT22;63443;48.366;10.876;2022-12-07T05:51:24;1.60;99.90
49032;DHT22;63443;48.366;10.876;2022-12-07T05:53:50;1.60;99.90
49032;DHT22;63443;48.366;10.876;2022-12-07T05:56:15;1.60;99.90
49032;DHT22;63443;48.366;10.876;2022-12-07T05:58:41;1.60;99.90
49032;DHT22;63443;48.366;10.876;2022-12-07T06:01:25;1.60;99.90
49032;DHT22;63443;48.366;10.876;2022-12-07T06:03:50;1.50;99.90
49032;DHT22;63443;48.366;10.876;2022-12-07T06:06:16;1.50;99.90
49032;DHT22;63443;48.366;10.876;2022-12-07T06:08:41;1.40;99.90
49032;DHT22;63443;48.366;10.876;2022-12-07T06:11:07;1.40;99.90
49032;DHT22;63443;48.366;10.876;2022-12-07T06:13:51;1.40;99.90
49032;DHT22;63443;48.366;10.876;2022-12-07T06:16:16;1.40;99.90
49032;DHT22;63443;48.366;10.876;2022-12-07T06:18:42;1.40;99.90
49032;DHT22;63443;48.366;10.876;2022-12-07T06:21:08;1.40;99.90
49032;DHT22;63443;48.366;10.876;2022-12-07T06:23:33;1.30;99.90
49032;DHT22;63443;48.366;10.876;2022-12-07T06:25:59;1.30;99.90
49032;DHT22;63443;48.366;10.876;2022-12-07T06:28:24;1.30;99.90
49032;DHT22;63443;48.366;10.876;2022-12-07T06:31:00;1.30;99.90
49032;DHT22;63443;48.366;10.876;2022-12-07T06:33:27;1.30;99.90
49032;DHT22;63443;48.366;10.876;2022-12-07T06:35:52;1.30;99.90
49032;DHT22;63443;48.366;10.876;2022-12-07T06:38:18;1.30;99.90
49032;DHT22;63443;48.366;10.876;2022-12-07T06:40:44;1.20;99.90
49032;DHT22;63443;48.366;10.876;2022-12-07T06:43:10;1.20;99.90
49032;DHT22;63443;48.366;10.876;2022-12-07T06:45:35;1.20;99.90
49032;DHT22;63443;48.366;10.876;2022-12-07T06:48:01;1.20;99.90
49032;DHT22;63443;48.366;10.876;2022-12-07T06:50:26;1.20;99.90
49032;DHT22;63443;48.366;10.876;2022-12-07T06:52:52;1.10;99.90
49032;DHT22;63443;48.366;10.876;2022-12-07T06:55:18;1.10;99.90
49032;DHT22;63443;48.366;10.876;2022-12-07T06:57:43;1.10;99.90
49032;DHT22;63443;48.366;10.876;2022-12-07T07:00:09;1.10;99.90
49032;DHT22;63443;48.366;10.876;2022-12-07T07:02:35;1.00;99.90
49032;DHT22;63443;48.366;10.876;2022-12-07T07:05:01;1.00;99.90
49032;DHT22;63443;48.366;10.876;2022-12-07T07:07:26;1.00;99.90
49032;DHT22;63443;48.366;10.876;2022-12-07T07:09:52;1.00;99.90
49032;DHT22;63443;48.366;10.876;2022-12-07T07:12:18;1.00;99.90
49032;DHT22;63443;48.366;10.876;2022-12-07T07:14:43;1.00;99.90
49032;DHT22;63443;48.366;10.876;2022-12-07T07:17:09;0.90;99.90
49032;DHT22;63443;48.366;10.876;2022-12-07T07:19:34;0.90;99.90
49032;DHT22;63443;48.366;10.876;2022-12-07T07:22:00;0.90;99.90
49032;DHT22;63443;48.366;10.876;2022-12-07T07:24:26;1.00;99.90
49032;DHT22;63443;48.366;10.876;2022-12-07T07:26:51;1.00;99.90
49032;DHT22;63443;48.366;10.876;2022-12-07T07:29:17;1.10;99.90
49032;DHT22;63443;48.366;10.876;2022-12-07T07:31:42;1.00;99.90
49032;DHT22;63443;48.366;10.876;2022-12-07T07:34:08;1.00;99.90
49032;DHT22;63443;48.366;10.876;2022-12-07T07:36:34;1.00;99.90
49032;DHT22;63443;48.366;10.876;2022-12-07T07:38:59;1.00;99.90
49032;DHT22;63443;48.366;10.876;2022-12-07T07:41:25;0.90;99.90
49032;DHT22;63443;48.366;10.876;2022-12-07T07:43:50;0.90;99.90
49032;DHT22;63443;48.366;10.876;2022-12-07T07:46:16;1.00;99.90
49032;DHT22;63443;48.366;10.876;2022-12-07T07:48:41;1.00;99.90
49032;DHT22;63443;48.366;10.876;2022-12-07T07:51:07;1.00;99.90
49032;DHT22;63443;48.366;10.876;2022-12-07T07:53:33;1.00;99.90
49032;DHT22;63443;48.366;10.876;2022-12-07T07:55:59;1.00;99.90
49032;DHT22;63443;48.366;10.876;2022-12-07T07:58:24;1.10;99.90
49032;DHT22;63443;48.366;10.876;2022-12-07T08:00:50;1.10;99.90
49032;DHT22;63443;48.366;10.876;2022-12-07T08:03:16;1.10;99.90
49032;DHT22;63443;48.366;10.876;2022-12-07T08:05:42;1.10;99.90
49032;DHT22;63443;48.366;10.876;2022-12-07T08:08:07;1.20;99.90
49032;DHT22;63443;48.366;10.876;2022-12-07T08:10:33;1.30;99.90
49032;DHT22;63443;48.366;10.876;2022-12-07T08:13:00;1.30;99.90
49032;DHT22;63443;48.366;10.876;2022-12-07T08:15:47;1.20;99.90
49032;DHT22;63443;48.366;10.876;2022-12-07T08:18:14;1.30;99.90
49032;DHT22;63443;48.366;10.876;2022-12-07T08:20:40;1.30;99.90
49032;DHT22;63443;48.366;10.876;2022-12-07T08:23:07;1.30;99.90
49032;DHT22;63443;48.366;10.876;2022-12-07T08:25:33;1.20;99.90
49032;DHT22;63443;48.366;10.876;2022-12-07T08:27:59;1.20;99.90
49032;DHT22;63443;48.366;10.876;2022-12-07T08:30:27;1.10;99.90
49032;DHT22;63443;48.366;10.876;2022-12-07T08:32:52;1.10;99.90
49032;DHT22;63443;48.366;10.876;2022-12-07T08:35:18;1.10;99.90
49032;DHT22;63443;48.366;10.876;2022-12-07T08:37:43;1.10;99.90
49032;DHT22;63443;48.366;10.876;2022-12-07T08:40:11;1.10;99.90
49032;DHT22;63443;48.366;10.876;2022-12-07T08:42:41;1.10;99.90
49032;DHT22;63443;48.366;10.876;2022-12-07T08:45:08;1.10;99.90
49032;DHT22;63443;48.366;10.876;2022-12-07T08:47:40;1.20;99.90
49032;DHT22;63443;48.366;10.876;2022-12-07T08:50:08;1.40;99.90
49032;DHT22;63443;48.366;10.876;2022-12-07T08:52:35;1.60;99.90
49032;DHT22;63443;48.366;10.876;2022-12-07T08:55:03;1.70;99.90
49032;DHT22;63443;48.366;10.876;2022-12-07T08:57:30;1.80;99.90
49032;DHT22;63443;48.366;10.876;2022-12-07T08:59:58;1.90;99.90
49032;DHT22;63443;48.366;10.876;2022-12-07T09:02:24;2.20;99.90
49032;DHT22;63443;48.366;10.876;2022-12-07T09:04:50;2.30;99.90
49032;DHT22;63443;48.366;10.876;2022-12-07T09:07:15;2.40;99.90
49032;DHT22;63443;48.366;10.876;2022-12-07T09:09:41;2.40;99.90
49032;DHT22;63443;48.366;10.876;2022-12-07T09:12:07;2.60;99.90
49032;DHT22;63443;48.366;10.876;2022-12-07T09:14:32;2.70;99.90
49032;DHT22;63443;48.366;10.876;2022-12-07T09:17:09;2.90;99.90
49032;DHT22;63443;48.366;10.876;2022-12-07T09:19:35;3.00;99.90
49032;DHT22;63443;48.366;10.876;2022-12-07T09:22:01;3.10;99.90
49032;DHT22;63443;48.366;10.876;2022-12-07T09:24:27;3.30;99.90
49032;DHT22;63443;48.366;10.876;2022-12-07T09:26:53;3.30;99.90
49032;DHT22;63443;48.366;10.876;2022-12-07T09:29:18;3.50;99.90
49032;DHT22;63443;48.366;10.876;2022-12-07T09:31:44;3.50;99.90
49032;DHT22;63443;48.366;10.876;2022-12-07T09:34:09;3.30;99.90
49032;DHT22;63443;48.366;10.876;2022-12-07T09:36:35;3.30;99.90
49032;DHT22;63443;48.366;10.876;2022-12-07T09:39:01;3.40;99.90
49032;DHT22;63443;48.366;10.876;2022-12-07T09:41:27;3.60;99.90
49032;DHT22;63443;48.366;10.876;2022-12-07T09:44:02;3.80;99.90
49032;DHT22;63443;48.366;10.876;2022-12-07T09:46:30;3.90;99.90
49032;DHT22;63443;48.366;10.876;2022-12-07T09:48:59;5.10;99.90
49032;DHT22;63443;48.366;10.876;2022-12-07T09:51:25;6.20;99.90
49032;DHT22;63443;48.366;10.876;2022-12-07T09:53:56;7.40;99.90
49032;DHT22;63443;48.366;10.876;2022-12-07T09:56:24;8.10;98.30
49032;DHT22;63443;48.366;10.876;2022-12-07T09:58:54;9.00;96.30
49032;DHT22;63443;48.366;10.876;2022-12-07T10:01:22;9.50;93.10
49032;DHT22;63443;48.366;10.876;2022-12-07T10:04:11;8.80;94.20
49032;DHT22;63443;48.366;10.876;2022-12-07T10:06:38;8.70;95.20
49032;DHT22;63443;48.366;10.876;2022-12-07T10:09:12;9.00;93.80
49032;DHT22;63443;48.366;10.876;2022-12-07T10:14:31;9.00;93.40
49032;DHT22;63443;48.366;10.876;2022-12-07T10:16:57;7.70;96.10
49032;DHT22;63443;48.366;10.876;2022-12-07T10:19:26;8.30;94.90
49032;DHT22;63443;48.366;10.876;2022-12-07T10:22:14;9.20;93.10
49032;DHT22;63443;48.366;10.876;2022-12-07T10:24:42;7.70;93.40
49032;DHT22;63443;48.366;10.876;2022-12-07T10:27:18;6.40;95.80
49032;DHT22;63443;48.366;10.876;2022-12-07T10:29:50;6.10;97.40
49032;DHT22;63443;48.366;10.876;2022-12-07T10:34:42;5.70;98.90
49032;DHT22;63443;48.366;10.876;2022-12-07T10:42:23;5.60;98.20
49032;DHT22;63443;48.366;10.876;2022-12-07T10:45:02;6.10;97.20
49032;DHT22;63443;48.366;10.876;2022-12-07T10:54:08;5.80;97.80
49032;DHT22;63443;48.366;10.876;2022-12-07T10:56:57;5.90;97.70
49032;DHT22;63443;48.366;10.876;2022-12-07T10:59:39;5.90;97.60
49032;DHT22;63443;48.366;10.876;2022-12-07T11:05:14;5.60;97.80
49032;DHT22;63443;48.366;10.876;2022-12-07T11:11:09;5.80;98.30
49032;DHT22;63443;48.366;10.876;2022-12-07T11:13:48;5.80;98.60
49032;DHT22;63443;48.366;10.876;2022-12-07T11:16:30;5.60;98.80
49032;DHT22;63443;48.366;10.876;2022-12-07T11:19:11;5.50;99.40
49032;DHT22;63443;48.366;10.876;2022-12-07T11:24:58;5.20;99.90
49032;DHT22;63443;48.366;10.876;2022-12-07T11:30:18;5.30;99.90
49032;DHT22;63443;48.366;10.876;2022-12-07T11:32:51;5.40;99.40
49032;DHT22;63443;48.366;10.876;2022-12-07T11:37:44;5.50;98.50
49032;DHT22;63443;48.366;10.876;2022-12-07T11:40:24;5.40;99.00
49032;DHT22;63443;48.366;10.876;2022-12-07T11:45:50;5.00;99.30
49032;DHT22;63443;48.366;10.876;2022-12-07T11:48:22;5.00;99.40
49032;DHT22;63443;48.366;10.876;2022-12-07T11:50:57;5.20;99.30
49032;DHT22;63443;48.366;10.876;2022-12-07T11:53:38;5.40;99.10
49032;DHT22;63443;48.366;10.876;2022-12-07T11:56:11;5.10;98.50
49032;DHT22;63443;48.366;10.876;2022-12-07T12:06:43;4.90;99.70
49032;DHT22;63443;48.366;10.876;2022-12-07T12:09:19;5.00;99.60
49032;DHT22;63443;48.366;10.876;2022-12-07T12:20:19;5.10;99.70
49032;DHT22;63443;48.366;10.876;2022-12-07T12:23:00;4.90;99.70
49032;DHT22;63443;48.366;10.876;2022-12-07T12:25:29;5.30;99.50
49032;DHT22;63443;48.366;10.876;2022-12-07T12:27:58;5.20;99.40
49032;DHT22;63443;48.366;10.876;2022-12-07T12:33:13;5.20;98.60
49032;DHT22;63443;48.366;10.876;2022-12-07T12:35:40;4.90;98.60
49032;DHT22;63443;48.366;10.876;2022-12-07T12:40:50;4.90;98.80
49032;DHT22;63443;48.366;10.876;2022-12-07T12:43:45;4.90;98.60
49032;DHT22;63443;48.366;10.876;2022-12-07T12:49:14;4.80;99.60
49032;DHT22;63443;48.366;10.876;2022-12-07T12:51:46;4.70;99.80
49032;DHT22;63443;48.366;10.876;2022-12-07T12:54:20;4.80;99.90
49032;DHT22;63443;48.366;10.876;2022-12-07T12:56:59;4.80;99.70
49032;DHT22;63443;48.366;10.876;2022-12-07T12:59:34;4.70;99.50
49032;DHT22;63443;48.366;10.876;2022-12-07T13:04:55;4.80;99.80
49032;DHT22;63443;48.366;10.876;2022-12-07T13:13:04;4.80;98.80
49032;DHT22;63443;48.366;10.876;2022-12-07T13:20:46;4.60;99.30
49032;DHT22;63443;48.366;10.876;2022-12-07T13:23:13;4.40;99.40
49032;DHT22;63443;48.366;10.876;2022-12-07T13:26:03;4.50;99.20
49032;DHT22;63443;48.366;10.876;2022-12-07T13:28:36;4.50;98.90
49032;DHT22;63443;48.366;10.876;2022-12-07T13:31:35;4.70;98.70
49032;DHT22;63443;48.366;10.876;2022-12-07T13:34:03;4.70;98.50
49032;DHT22;63443;48.366;10.876;2022-12-07T13:36:38;4.60;99.00
49032;DHT22;63443;48.366;10.876;2022-12-07T13:39:17;4.60;99.20
49032;DHT22;63443;48.366;10.876;2022-12-07T13:41:44;4.70;99.20
49032;DHT22;63443;48.366;10.876;2022-12-07T13:44:16;4.60;99.20
49032;DHT22;63443;48.366;10.876;2022-12-07T13:47:07;4.70;99.20
49032;DHT22;63443;48.366;10.876;2022-12-07T13:49:46;4.40;99.20
49032;DHT22;63443;48.366;10.876;2022-12-07T13:55:05;4.40;99.60
49032;DHT22;63443;48.366;10.876;2022-12-07T13:57:35;4.50;99.40
49032;DHT22;63443;48.366;10.876;2022-12-07T14:00:03;4.40;99.50
49032;DHT22;63443;48.366;10.876;2022-12-07T14:02:32;4.20;99.90
49032;DHT22;63443;48.366;10.876;2022-12-07T14:05:15;4.20;99.90
49032;DHT22;63443;48.366;10.876;2022-12-07T14:08:02;4.30;99.90
49032;DHT22;63443;48.366;10.876;2022-12-07T14:12:57;4.60;99.80
49032;DHT22;63443;48.366;10.876;2022-12-07T14:15:32;4.60;99.60
49032;DHT22;63443;48.366;10.876;2022-12-07T14:17:59;4.70;99.60
49032;DHT22;63443;48.366;10.876;2022-12-07T14:20:34;4.90;99.50
49032;DHT22;63443;48.366;10.876;2022-12-07T14:23:00;4.90;99.30
49032;DHT22;63443;48.366;10.876;2022-12-07T14:25:45;4.90;99.10
49032;DHT22;63443;48.366;10.876;2022-12-07T14:28:26;4.80;99.40
49032;DHT22;63443;48.366;10.876;2022-12-07T14:30:52;4.90;99.60
49032;DHT22;63443;48.366;10.876;2022-12-07T14:33:18;5.40;99.40
49032;DHT22;63443;48.366;10.876;2022-12-07T14:35:44;6.70;96.10
49032;DHT22;63443;48.366;10.876;2022-12-07T14:38:09;8.20;94.00
49032;DHT22;63443;48.366;10.876;2022-12-07T14:40:35;9.10;91.10
49032;DHT22;63443;48.366;10.876;2022-12-07T14:43:03;10.40;85.10
49032;DHT22;63443;48.366;10.876;2022-12-07T14:45:30;11.40;78.40
49032;DHT22;63443;48.366;10.876;2022-12-07T14:47:56;11.10;77.80
49032;DHT22;63443;48.366;10.876;2022-12-07T14:50:22;11.40;76.40
49032;DHT22;63443;48.366;10.876;2022-12-07T14:52:55;11.20;75.60
49032;DHT22;63443;48.366;10.876;2022-12-07T14:55:27;11.10;76.50
49032;DHT22;63443;48.366;10.876;2022-12-07T14:57:53;11.40;74.40
49032;DHT22;63443;48.366;10.876;2022-12-07T15:00:20;10.90;76.10
49032;DHT22;63443;48.366;10.876;2022-12-07T15:02:47;9.60;78.00
49032;DHT22;63443;48.366;10.876;2022-12-07T15:05:13;8.30;82.00
49032;DHT22;63443;48.366;10.876;2022-12-07T15:07:39;6.60;89.70
49032;DHT22;63443;48.366;10.876;2022-12-07T15:10:06;6.30;91.20
49032;DHT22;63443;48.366;10.876;2022-12-07T15:12:32;6.10;92.20
49032;DHT22;63443;48.366;10.876;2022-12-07T15:14:57;5.40;94.30
49032;DHT22;63443;48.366;10.876;2022-12-07T15:17:23;5.20;95.40
49032;DHT22;63443;48.366;10.876;2022-12-07T15:19:48;4.90;96.30
49032;DHT22;63443;48.366;10.876;2022-12-07T15:22:14;4.60;97.90
49032;DHT22;63443;48.366;10.876;2022-12-07T15:24:39;4.40;98.70
49032;DHT22;63443;48.366;10.876;2022-12-07T15:27:05;4.10;99.30
49032;DHT22;63443;48.366;10.876;2022-12-07T15:29:31;3.90;99.90
49032;DHT22;63443;48.366;10.876;2022-12-07T15:31:56;3.80;99.90
49032;DHT22;63443;48.366;10.876;2022-12-07T15:34:23;3.60;99.90
49032;DHT22;63443;48.366;10.876;2022-12-07T15:36:50;3.40;99.90
49032;DHT22;63443;48.366;10.876;2022-12-07T15:39:15;3.30;99.90
49032;DHT22;63443;48.366;10.876;2022-12-07T15:41:41;3.20;99.90
49032;DHT22;63443;48.366;10.876;2022-12-07T15:44:08;3.20;99.90
49032;DHT22;63443;48.366;10.876;2022-12-07T15:46:52;3.10;99.90
49032;DHT22;63443;48.366;10.876;2022-12-07T15:49:17;3.00;99.90
49032;DHT22;63443;48.366;10.876;2022-12-07T15:51:43;2.90;99.90
49032;DHT22;63443;48.366;10.876;2022-12-07T15:54:13;2.80;99.90
49032;DHT22;63443;48.366;10.876;2022-12-07T15:56:41;2.70;99.90
49032;DHT22;63443;48.366;10.876;2022-12-07T15:59:06;2.60;99.90
49032;DHT22;63443;48.366;10.876;2022-12-07T16:01:32;2.60;99.90
49032;DHT22;63443;48.366;10.876;2022-12-07T16:03:57;2.50;99.90
49032;DHT22;63443;48.366;10.876;2022-12-07T16:06:24;2.50;99.90
49032;DHT22;63443;48.366;10.876;2022-12-07T16:08:49;2.40;99.90
49032;DHT22;63443;48.366;10.876;2022-12-07T16:11:15;2.40;99.90
49032;DHT22;63443;48.366;10.876;2022-12-07T16:13:40;2.30;99.90
49032;DHT22;63443;48.366;10.876;2022-12-07T16:16:07;2.20;99.90
49032;DHT22;63443;48.366;10.876;2022-12-07T16:18:33;2.20;99.90
49032;DHT22;63443;48.366;10.876;2022-12-07T16:20:58;2.00;99.90
49032;DHT22;63443;48.366;10.876;2022-12-07T16:23:24;2.00;99.90
49032;DHT22;63443;48.366;10.876;2022-12-07T16:25:50;2.00;99.90
49032;DHT22;63443;48.366;10.876;2022-12-07T16:28:15;1.90;99.90
49032;DHT22;63443;48.366;10.876;2022-12-07T16:30:41;1.90;99.90
49032;DHT22;63443;48.366;10.876;2022-12-07T16:33:06;2.10;99.90
49032;DHT22;63443;48.366;10.876;2022-12-07T16:35:31;2.20;99.90
49032;DHT22;63443;48.366;10.876;2022-12-07T16:37:57;2.30;99.90
49032;DHT22;63443;48.366;10.876;2022-12-07T16:40:23;2.30;99.90
49032;DHT22;63443;48.366;10.876;2022-12-07T16:42:48;2.30;99.90
49032;DHT22;63443;48.366;10.876;2022-12-07T16:45:14;2.30;99.90
49032;DHT22;63443;48.366;10.876;2022-12-07T16:47:39;2.30;99.90
49032;DHT22;63443;48.366;10.876;2022-12-07T16:50:05;2.30;99.90
49032;DHT22;63443;48.366;10.876;2022-12-07T16:52:31;2.20;99.90
49032;DHT22;63443;48.366;10.876;2022-12-07T16:54:56;2.20;99.90
49032;DHT22;63443;48.366;10.876;2022-12-07T16:57:22;2.20;99.90
49032;DHT22;63443;48.366;10.876;2022-12-07T16:59:47;2.10;99.90
49032;DHT22;63443;48.366;10.876;2022-12-07T17:02:13;2.00;99.90
49032;DHT22;63443;48.366;10.876;2022-12-07T17:04:38;1.80;99.90
49032;DHT22;63443;48.366;10.876;2022-12-07T17:07:05;1.70;99.90
49032;DHT22;63443;48.366;10.876;2022-12-07T17:09:30;1.70;99.90
49032;DHT22;63443;48.366;10.876;2022-12-07T17:11:56;1.60;99.90
49032;DHT22;63443;48.366;10.876;2022-12-07T17:14:22;1.60;99.90
49032;DHT22;63443;48.366;10.876;2022-12-07T17:17:06;1.50;99.90
49032;DHT22;63443;48.366;10.876;2022-12-07T17:19:31;1.40;99.90
49032;DHT22;63443;48.366;10.876;2022-12-07T17:21:57;1.30;99.90
49032;DHT22;63443;48.366;10.876;2022-12-07T17:24:22;1.30;99.90